createdAt,value
2018-03-21T00:02:24.460Z,38.35
2018-03-21T00:04:52.012Z,37.97
2018-03-21T00:07:19.599Z,36.28
2018-03-21T00:09:47.910Z,39.05
2018-03-21T00:12:15.454Z,39.28
2018-03-21T00:14:43.024Z,38.90
2018-03-21T00:17:10.585Z,38.50
2018-03-21T00:19:38.146Z,37.30
2018-03-21T00:22:06.844Z,38.08
2018-03-21T00:24:35.748Z,36.20
2018-03-21T00:27:03.336Z,37.97
2018-03-21T00:29:30.936Z,38.92
2018-03-21T00:31:58.475Z,37.42
2018-03-21T00:34:26.038Z,37.15
2018-03-21T00:36:53.626Z,38.38
2018-03-21T00:39:21.193Z,36.13
2018-03-21T00:41:49.746Z,34.58
2018-03-21T00:44:18.505Z,35.75
2018-03-21T00:46:46.825Z,35.85
2018-03-21T00:49:14.366Z,35.65
2018-03-21T00:51:42.246Z,37.05
2018-03-21T00:54:09.953Z,35.25
2018-03-21T00:56:38.041Z,36.63
2018-03-21T00:59:07.642Z,36.38
2018-03-21T01:01:37.970Z,35.70
2018-03-21T01:04:06.249Z,39.25
2018-03-21T01:06:33.843Z,36.38
2018-03-21T01:09:01.391Z,37.17
2018-03-21T01:11:28.980Z,37.40
2018-03-21T01:13:56.635Z,37.55
2018-03-21T01:16:24.202Z,36.72
2018-03-21T01:18:51.774Z,38.20
2018-03-21T01:21:19.345Z,40.08
2018-03-21T01:23:46.910Z,39.97
2018-03-21T01:26:15.257Z,39.03
2018-03-21T01:28:42.836Z,39.00
2018-03-21T01:31:10.391Z,40.08
2018-03-21T01:33:38.286Z,39.45
2018-03-21T01:36:06.890Z,38.35
2018-03-21T01:38:35.910Z,42.30
2018-03-21T01:41:03.622Z,40.42
2018-03-21T01:43:31.922Z,41.95
2018-03-21T01:45:59.477Z,41.20
2018-03-21T01:48:27.151Z,42.60
2018-03-21T01:50:55.475Z,43.13
2018-03-21T01:53:23.033Z,43.10
2018-03-21T01:55:51.301Z,45.03
2018-03-21T01:58:18.865Z,40.45
2018-03-21T02:00:47.923Z,41.63
2018-03-21T02:03:15.893Z,42.13
2018-03-21T02:05:44.225Z,41.65
2018-03-21T02:08:11.755Z,41.35
2018-03-21T02:10:39.335Z,38.75
2018-03-21T02:13:08.197Z,38.42
2018-03-21T02:15:37.288Z,40.47
2018-03-21T02:18:06.667Z,36.53
2018-03-21T02:20:37.047Z,41.37
2018-03-21T02:23:04.651Z,41.65
2018-03-21T02:25:32.225Z,39.88
2018-03-21T02:27:59.778Z,35.05
2018-03-21T02:30:27.313Z,38.83
2018-03-21T02:32:55.303Z,37.22
2018-03-21T02:35:23.644Z,38.00
2018-03-21T02:37:51.206Z,37.70
2018-03-21T02:40:18.835Z,37.22
2018-03-21T02:42:46.395Z,37.22
2018-03-21T02:45:13.945Z,37.97
2018-03-21T02:47:42.277Z,36.80
2018-03-21T02:50:09.852Z,38.42
2018-03-21T02:52:37.774Z,38.85
2018-03-21T02:55:06.732Z,38.60
2018-03-21T02:57:36.735Z,33.83
2018-03-21T03:00:06.792Z,36.35
2018-03-21T03:02:34.380Z,36.03
2018-03-21T03:05:01.923Z,38.28
2018-03-21T03:07:30.234Z,25.85
2018-03-21T03:09:57.839Z,30.95
2018-03-21T03:12:25.381Z,30.17
2018-03-21T03:14:53.722Z,29.00
2018-03-21T03:17:22.386Z,29.98
2018-03-21T03:19:49.965Z,30.73
2018-03-21T03:22:17.511Z,31.12
2018-03-21T03:24:45.191Z,29.20
2018-03-21T03:27:12.721Z,28.70
2018-03-21T03:29:40.266Z,28.85
2018-03-21T03:32:07.856Z,29.00
2018-03-21T03:34:35.703Z,27.23
2018-03-21T03:37:04.035Z,27.90
2018-03-21T03:39:31.618Z,26.45
2018-03-21T03:41:59.170Z,29.20
2018-03-21T03:44:27.482Z,28.05
2018-03-21T03:46:55.080Z,29.73
2018-03-21T03:49:22.705Z,29.45
2018-03-21T03:51:50.386Z,29.55
2018-03-21T03:54:17.949Z,28.52
2018-03-21T03:56:45.509Z,26.33
2018-03-21T03:59:13.237Z,27.70
2018-03-21T04:01:40.818Z,27.55
2018-03-21T04:04:08.371Z,27.23
2018-03-21T04:06:36.860Z,28.45
2018-03-21T04:09:04.406Z,27.37
2018-03-21T04:11:31.987Z,28.77
2018-03-21T04:14:00.346Z,27.17
2018-03-21T04:16:28.670Z,27.65
2018-03-21T04:18:56.256Z,29.02
2018-03-21T04:21:23.811Z,29.10
2018-03-21T04:23:51.362Z,26.60
2018-03-21T04:26:19.011Z,26.92
2018-03-21T04:28:46.552Z,27.08
2018-03-21T04:31:14.666Z,26.65
2018-03-21T04:33:42.315Z,26.92
2018-03-21T04:36:09.855Z,26.67
2018-03-21T04:38:37.741Z,24.48
2018-03-21T04:41:05.722Z,24.90
2018-03-21T04:43:33.291Z,25.42
2018-03-21T04:46:01.627Z,25.35
2018-03-21T04:48:29.214Z,24.40
2018-03-21T04:50:56.795Z,25.05
2018-03-21T04:53:24.334Z,25.00
2018-03-21T04:55:52.038Z,26.87
2018-03-21T04:58:19.606Z,23.70
2018-03-21T05:00:47.177Z,24.75
2018-03-21T05:03:15.667Z,26.02
2018-03-21T05:05:43.212Z,24.80
2018-03-21T05:08:10.742Z,25.23
2018-03-21T05:10:38.634Z,26.67
2018-03-21T05:13:06.854Z,26.77
2018-03-21T05:15:34.405Z,27.45
2018-03-21T05:18:02.435Z,28.30
2018-03-21T05:20:29.983Z,28.27
2018-03-21T05:22:57.654Z,24.87
2018-03-21T05:25:26.538Z,24.40
2018-03-21T05:27:54.095Z,24.37
2018-03-21T05:30:22.439Z,24.50
2018-03-21T05:32:50.028Z,23.85
2018-03-21T05:35:17.564Z,23.10
2018-03-21T05:37:45.312Z,22.33
2018-03-21T05:40:12.923Z,22.40
2018-03-21T05:42:40.480Z,23.12
2018-03-21T05:45:08.811Z,22.48
2018-03-21T05:47:37.926Z,21.20
2018-03-21T05:50:06.351Z,21.15
2018-03-21T05:52:34.747Z,21.15
2018-03-21T05:55:02.635Z,21.10
2018-03-21T05:57:30.284Z,20.12
2018-03-21T05:59:57.844Z,19.45
2018-03-21T06:02:25.467Z,19.73
2018-03-21T06:04:53.042Z,19.08
2018-03-21T06:07:21.797Z,18.15
2018-03-21T06:09:50.233Z,18.77
2018-03-21T06:12:17.793Z,18.75
2018-03-21T06:14:46.143Z,16.42
2018-03-21T06:17:13.690Z,15.05
2018-03-21T06:19:42.021Z,17.23
2018-03-21T06:22:10.119Z,15.60
2018-03-21T06:24:38.323Z,15.98
2018-03-21T06:27:07.257Z,15.05
2018-03-21T06:29:34.843Z,15.10
2018-03-21T06:32:03.183Z,16.30
2018-03-21T06:34:30.788Z,15.35
2018-03-21T06:36:58.405Z,15.18
2018-03-21T06:39:26.109Z,14.50
2018-03-21T06:41:53.663Z,15.25
2018-03-21T06:44:22.042Z,13.62
2018-03-21T06:46:49.632Z,11.75
2018-03-21T06:49:17.250Z,12.90
2018-03-21T06:51:44.983Z,12.32
2018-03-21T06:54:12.767Z,12.55
2018-03-21T06:56:40.342Z,12.63
2018-03-21T06:59:08.761Z,12.15
2018-03-21T07:01:36.967Z,12.30
2018-03-21T07:04:04.586Z,12.20
2018-03-21T07:06:32.173Z,11.75
2018-03-21T07:08:59.927Z,11.55
2018-03-21T07:11:27.508Z,11.00
2018-03-21T07:14:07.194Z,8.60
2018-03-21T07:16:43.587Z,8.98
2018-03-21T07:19:11.161Z,9.80
2018-03-21T07:21:38.720Z,10.35
2018-03-21T07:24:06.914Z,9.88
2018-03-21T07:26:34.540Z,8.52
2018-03-21T07:29:02.938Z,8.60
2018-03-21T07:31:30.496Z,9.50
2018-03-21T07:33:58.488Z,8.85
2018-03-21T07:36:26.902Z,9.65
2018-03-21T07:38:54.498Z,7.32
2018-03-21T07:41:22.873Z,7.68
2018-03-21T07:43:50.428Z,8.77
2018-03-21T07:46:18.076Z,8.35
2018-03-21T07:48:45.721Z,8.45
2018-03-21T07:51:13.288Z,8.13
2018-03-21T07:53:40.878Z,8.63
2018-03-21T07:56:08.547Z,7.70
2018-03-21T07:58:36.996Z,8.17
2018-03-21T08:01:04.572Z,7.10
2018-03-21T08:03:32.214Z,8.50
2018-03-21T08:05:59.791Z,7.90
2018-03-21T08:08:28.138Z,7.67
2018-03-21T08:10:55.749Z,8.93
2018-03-21T08:13:23.315Z,7.50
2018-03-21T08:15:50.908Z,7.60
2018-03-21T08:18:18.478Z,8.33
2018-03-21T08:20:46.822Z,7.10
2018-03-21T08:23:15.219Z,6.70
2018-03-21T08:25:42.835Z,8.63
2018-03-21T08:28:11.201Z,6.87
2018-03-21T08:30:38.802Z,7.37
2018-03-21T08:33:06.866Z,7.67
2018-03-21T08:35:36.859Z,6.90
2018-03-21T08:38:05.980Z,7.10
2018-03-21T08:40:33.555Z,6.90
2018-03-21T08:43:01.127Z,8.10
2018-03-21T08:45:28.724Z,7.40
2018-03-21T08:47:56.290Z,7.90
2018-03-21T08:50:23.863Z,7.90
2018-03-21T08:52:52.232Z,9.03
2018-03-21T08:55:19.789Z,8.53
2018-03-21T08:57:47.337Z,8.17
2018-03-21T09:00:14.995Z,10.30
2018-03-21T09:02:42.554Z,9.40
2018-03-21T09:05:10.124Z,8.80
2018-03-21T09:07:38.805Z,9.30
2018-03-21T09:10:06.824Z,10.37
2018-03-21T09:12:34.409Z,8.43
2018-03-21T09:15:02.332Z,9.70
2018-03-21T09:17:29.903Z,11.07
2018-03-21T09:19:57.457Z,9.70
2018-03-21T09:22:25.068Z,10.20
2018-03-21T09:24:52.640Z,10.23
2018-03-21T09:27:20.222Z,10.48
2018-03-21T09:29:48.902Z,9.33
2018-03-21T09:32:16.447Z,9.30
2018-03-21T09:34:44.031Z,10.53
2018-03-21T09:37:11.634Z,9.68
2018-03-21T09:39:39.715Z,10.13
2018-03-21T09:42:08.023Z,9.87
2018-03-21T09:44:36.862Z,11.17
2018-03-21T09:47:05.867Z,11.97
2018-03-21T09:49:34.217Z,10.97
2018-03-21T09:52:01.913Z,10.37
2018-03-21T09:54:32.144Z,10.37
2018-03-21T09:56:59.755Z,10.30
2018-03-21T09:59:27.352Z,11.60
2018-03-21T10:01:54.942Z,10.50
2018-03-21T10:04:22.526Z,9.97
2018-03-21T10:06:50.186Z,11.83
2018-03-21T10:09:17.747Z,11.53
2018-03-21T10:11:46.075Z,10.50
2018-03-21T10:14:13.658Z,10.67
2018-03-21T10:16:41.215Z,10.80
2018-03-21T10:19:08.781Z,10.63
2018-03-21T10:21:36.974Z,10.10
2018-03-21T10:24:04.661Z,10.43
2018-03-21T10:26:32.397Z,10.87
2018-03-21T10:29:00.728Z,11.43
2018-03-21T10:31:28.312Z,11.07
2018-03-21T10:33:56.257Z,10.97
2018-03-21T10:36:23.842Z,11.33
2018-03-21T10:38:52.385Z,11.60
2018-03-21T10:41:20.882Z,12.07
2018-03-21T10:43:48.478Z,11.03
2018-03-21T10:46:16.068Z,11.97
2018-03-21T10:48:43.652Z,10.37
2018-03-21T10:51:11.211Z,11.90
2018-03-21T10:53:39.537Z,11.70
2018-03-21T10:56:08.085Z,12.27
2018-03-21T10:58:35.894Z,11.53
2018-03-21T11:01:14.148Z,11.90
2018-03-21T11:03:41.849Z,11.43
2018-03-21T11:06:09.484Z,12.27
2018-03-21T11:08:37.705Z,12.17
2018-03-21T11:11:05.927Z,11.80
2018-03-21T11:13:33.502Z,11.50
2018-03-21T11:16:01.418Z,11.20
2018-03-21T11:18:29.785Z,11.73
2018-03-21T11:20:57.538Z,10.97
2018-03-21T11:23:25.283Z,12.10
2018-03-21T11:25:52.871Z,13.10
2018-03-21T11:28:20.477Z,11.37
2018-03-21T11:30:48.148Z,11.60
2018-03-21T11:33:15.702Z,10.30
2018-03-21T11:35:43.244Z,11.33
2018-03-21T11:38:11.064Z,11.23
2018-03-21T11:40:38.652Z,12.50
2018-03-21T11:43:07.398Z,11.40
2018-03-21T11:45:35.120Z,12.00
2018-03-21T11:48:03.607Z,11.30
2018-03-21T11:50:31.194Z,10.43
2018-03-21T11:52:58.777Z,11.10
2018-03-21T11:55:26.383Z,12.00
2018-03-21T11:57:53.929Z,9.73
2018-03-21T12:00:21.521Z,9.70
2018-03-21T12:02:49.125Z,9.50
2018-03-21T12:05:16.661Z,9.27
2018-03-21T12:07:44.296Z,11.03
2018-03-21T12:10:12.092Z,10.47
2018-03-21T12:12:40.428Z,11.23
2018-03-21T12:15:08.254Z,11.90
2018-03-21T12:17:36.586Z,10.60
2018-03-21T12:20:04.966Z,11.77
2018-03-21T12:22:32.607Z,11.90
2018-03-21T12:25:00.167Z,11.30
2018-03-21T12:27:28.609Z,9.90
2018-03-21T12:29:56.944Z,9.90
2018-03-21T12:32:25.281Z,10.90
2018-03-21T12:34:52.863Z,10.27
2018-03-21T12:37:20.763Z,11.00
2018-03-21T12:39:48.340Z,7.27
2018-03-21T12:42:15.926Z,9.77
2018-03-21T12:44:43.549Z,9.30
2018-03-21T12:47:11.079Z,8.93
2018-03-21T12:49:38.634Z,10.07
2018-03-21T12:52:07.638Z,10.23
2018-03-21T12:54:35.222Z,9.63
2018-03-21T12:57:02.800Z,11.13
2018-03-21T12:59:30.471Z,10.40
2018-03-21T13:01:58.053Z,9.20
2018-03-21T13:04:25.640Z,12.70
2018-03-21T13:06:53.977Z,10.30
2018-03-21T13:09:21.533Z,9.43
2018-03-21T13:11:49.947Z,10.30
2018-03-21T13:14:17.965Z,11.20
2018-03-21T13:16:45.502Z,11.37
2018-03-21T13:19:13.132Z,9.80
2018-03-21T13:21:40.726Z,10.43
2018-03-21T13:24:09.075Z,9.40
2018-03-21T13:26:37.051Z,9.10
2018-03-21T13:29:05.725Z,9.10
2018-03-21T13:31:33.273Z,9.80
2018-03-21T13:34:00.892Z,9.80
2018-03-21T13:36:29.609Z,10.27
2018-03-21T13:38:57.174Z,9.20
2018-03-21T13:41:24.876Z,9.60
2018-03-21T13:43:52.474Z,10.00
2018-03-21T13:46:20.045Z,9.57
2018-03-21T13:48:48.391Z,9.10
2018-03-21T13:51:16.027Z,9.90
2018-03-21T13:53:43.579Z,10.20
2018-03-21T13:56:11.895Z,9.13
2018-03-21T13:58:39.507Z,10.03
2018-03-21T14:01:07.842Z,9.53
2018-03-21T14:03:37.919Z,9.20
2018-03-21T14:06:06.220Z,9.83
2018-03-21T14:08:33.754Z,9.10
2018-03-21T14:11:01.364Z,8.33
2018-03-21T14:13:29.781Z,9.73
2018-03-21T14:15:57.346Z,8.57
2018-03-21T14:18:24.945Z,10.10
2018-03-21T14:20:53.057Z,9.10
2018-03-21T14:23:20.641Z,8.90
2018-03-21T14:25:48.221Z,8.07
2018-03-21T14:28:15.866Z,8.90
2018-03-21T14:30:43.436Z,9.93
2018-03-21T14:33:11.884Z,8.47
2018-03-21T14:35:39.567Z,9.40
2018-03-21T14:38:08.273Z,8.63
2018-03-21T14:40:36.846Z,9.17
2018-03-21T14:43:04.443Z,8.60
2018-03-21T14:45:32.129Z,8.70
2018-03-21T14:48:00.495Z,10.30
2018-03-21T14:50:28.170Z,8.57
2018-03-21T14:52:55.803Z,9.23
2018-03-21T14:55:24.111Z,8.83
2018-03-21T14:57:51.763Z,9.00
2018-03-21T15:00:20.253Z,10.60
2018-03-21T15:02:48.701Z,9.43
2018-03-21T15:05:16.324Z,7.50
2018-03-21T15:07:43.927Z,9.37
2018-03-21T15:10:12.428Z,9.40
2018-03-21T15:12:40.031Z,8.80
2018-03-21T15:15:08.691Z,8.30
2018-03-21T15:17:37.280Z,8.77
2018-03-21T15:20:06.120Z,7.60
2018-03-21T15:22:34.934Z,7.73
2018-03-21T15:25:02.513Z,8.50
2018-03-21T15:27:30.214Z,8.70
2018-03-21T15:29:57.819Z,7.80
2018-03-21T15:32:26.163Z,8.57
2018-03-21T15:34:53.763Z,8.00
2018-03-21T15:37:21.374Z,8.03
2018-03-21T15:39:49.939Z,7.47
2018-03-21T15:42:17.489Z,7.23
2018-03-21T15:44:45.088Z,7.00
2018-03-21T15:47:13.414Z,8.37
2018-03-21T15:49:42.010Z,8.17
2018-03-21T15:52:10.284Z,7.33
2018-03-21T15:54:38.448Z,7.80
2018-03-21T15:57:06.705Z,7.60
2018-03-21T15:59:34.394Z,8.20
2018-03-21T16:02:01.982Z,8.80
2018-03-21T16:04:29.631Z,8.50
2018-03-21T16:06:57.622Z,8.00
2018-03-21T16:09:25.223Z,8.60
2018-03-21T16:11:53.700Z,8.47
2018-03-21T16:14:21.821Z,8.63
2018-03-21T16:16:50.214Z,7.87
2018-03-21T16:19:17.753Z,7.83
2018-03-21T16:21:45.762Z,7.93
2018-03-21T16:24:14.349Z,7.50
2018-03-21T16:26:42.723Z,8.00
2018-03-21T16:29:11.183Z,12.00
2018-03-21T16:31:39.495Z,8.20
2018-03-21T16:34:08.007Z,8.37
2018-03-21T16:36:36.380Z,11.80
2018-03-21T16:39:04.062Z,8.37
2018-03-21T16:41:31.590Z,7.37
2018-03-21T16:43:59.183Z,8.17
2018-03-21T16:46:27.026Z,7.97
2018-03-21T16:48:54.708Z,7.23
2018-03-21T16:51:22.400Z,8.60
2018-03-21T16:53:50.741Z,8.13
2018-03-21T16:56:18.364Z,7.97
2018-03-21T16:58:46.016Z,6.80
2018-03-21T17:01:13.598Z,8.27
2018-03-21T17:03:41.228Z,8.33
2018-03-21T17:06:08.893Z,10.23
2018-03-21T17:08:37.279Z,8.93
2018-03-21T17:11:04.853Z,8.00
2018-03-21T17:13:33.219Z,9.07
2018-03-21T17:16:00.786Z,7.87
2018-03-21T17:18:29.119Z,7.80
2018-03-21T17:20:57.477Z,8.82
2018-03-21T17:23:25.818Z,8.20
2018-03-21T17:25:53.483Z,9.97
2018-03-21T17:28:21.050Z,8.07
2018-03-21T17:30:48.617Z,9.83
2018-03-21T17:33:16.517Z,8.63
2018-03-21T17:35:44.061Z,8.10
2018-03-21T17:38:11.666Z,9.23
2018-03-21T17:40:39.269Z,10.60
2018-03-21T17:43:07.659Z,10.23
2018-03-21T17:45:35.264Z,10.20
2018-03-21T17:48:02.870Z,9.93
2018-03-21T17:50:30.547Z,11.23
2018-03-21T17:52:58.312Z,10.10
2018-03-21T17:55:25.975Z,10.32
2018-03-21T17:57:53.900Z,10.38
2018-03-21T18:00:21.486Z,11.07
2018-03-21T18:02:49.860Z,9.35
2018-03-21T18:05:17.490Z,10.80
2018-03-21T18:07:45.090Z,10.07
2018-03-21T18:10:12.764Z,11.75
2018-03-21T18:12:41.337Z,11.77
2018-03-21T18:15:08.930Z,9.00
2018-03-21T18:17:37.177Z,9.93
2018-03-21T18:20:04.746Z,11.05
2018-03-21T18:22:33.294Z,10.20
2018-03-21T18:25:01.739Z,10.68
2018-03-21T18:27:30.895Z,12.23
2018-03-21T18:29:58.692Z,11.43
2018-03-21T18:32:26.350Z,10.18
2018-03-21T18:34:53.968Z,10.63
2018-03-21T18:37:21.919Z,11.20
2018-03-21T18:39:49.584Z,9.90
2018-03-21T18:42:17.167Z,10.38
2018-03-21T18:44:44.729Z,10.52
2018-03-21T18:47:12.661Z,12.18
2018-03-21T18:49:40.265Z,12.90
2018-03-21T18:52:08.507Z,15.82
2018-03-21T18:54:36.853Z,14.80
2018-03-21T18:57:04.599Z,13.27
2018-03-21T18:59:32.221Z,12.85
2018-03-21T19:02:00.609Z,14.98
2018-03-21T19:04:28.511Z,14.27
2018-03-21T19:06:56.075Z,14.00
2018-03-21T19:09:23.959Z,15.05
2018-03-21T19:11:52.282Z,13.60
2018-03-21T19:14:20.715Z,14.43
2018-03-21T19:16:48.345Z,13.10
2018-03-21T19:19:15.903Z,14.25
2018-03-21T19:21:43.554Z,14.15
2018-03-21T19:24:11.131Z,13.52
2018-03-21T19:26:39.531Z,13.65
2018-03-21T19:29:07.991Z,13.90
2018-03-21T19:31:36.338Z,12.77
2018-03-21T19:34:03.980Z,12.37
2018-03-21T19:36:32.061Z,12.93
2018-03-21T19:38:59.644Z,11.30
2018-03-21T19:41:28.025Z,12.02
2018-03-21T19:43:55.632Z,12.07
2018-03-21T19:46:23.978Z,12.18
2018-03-21T19:48:51.511Z,13.00
2018-03-21T19:51:19.883Z,12.20
2018-03-21T19:53:48.223Z,11.98
2018-03-21T19:56:15.834Z,11.82
2018-03-21T19:58:43.415Z,12.88
2018-03-21T20:01:11.135Z,11.57
2018-03-21T20:03:38.751Z,11.73
2018-03-21T20:06:07.055Z,12.85
2018-03-21T20:08:34.984Z,12.93
2018-03-21T20:11:03.437Z,11.68
2018-03-21T20:13:31.770Z,12.88
2018-03-21T20:15:59.563Z,12.52
2018-03-21T20:18:27.188Z,12.15
2018-03-21T20:20:54.771Z,12.93
2018-03-21T20:23:23.222Z,13.20
2018-03-21T20:25:51.580Z,12.93
2018-03-21T20:28:19.151Z,12.57
2018-03-21T20:30:47.527Z,13.55
2018-03-21T20:33:15.103Z,14.10
2018-03-21T20:35:42.660Z,13.35
2018-03-21T20:38:11.722Z,12.48
2018-03-21T20:40:39.286Z,12.88
2018-03-21T20:43:07.370Z,13.50
2018-03-21T20:45:35.387Z,14.25
2018-03-21T20:48:03.057Z,13.80
2018-03-21T20:50:31.580Z,14.40
2018-03-21T20:52:59.198Z,15.93
2018-03-21T20:55:27.087Z,14.07
2018-03-21T20:57:55.626Z,13.50
2018-03-21T21:00:24.714Z,14.32
2018-03-21T21:02:52.334Z,13.93
2018-03-21T21:05:20.972Z,13.77
2018-03-21T21:07:48.848Z,14.25
2018-03-21T21:10:16.597Z,13.32
2018-03-21T21:12:45.024Z,14.95
2018-03-21T21:15:12.704Z,14.60
2018-03-21T21:17:41.061Z,13.02
2018-03-21T21:20:09.908Z,13.85
2018-03-21T21:22:38.360Z,12.93
2018-03-21T21:25:07.322Z,13.62
2018-03-21T21:27:35.001Z,13.80
2018-03-21T21:30:02.603Z,13.68
2018-03-21T21:32:30.961Z,13.68
2018-03-21T21:34:58.660Z,14.43
2018-03-21T21:37:26.301Z,13.82
2018-03-21T21:39:54.036Z,13.88
2018-03-21T21:42:21.639Z,13.02
2018-03-21T21:44:50.230Z,12.80
2018-03-21T21:47:18.061Z,14.80
2018-03-21T21:49:45.638Z,13.30
2018-03-21T21:52:14.022Z,14.05
2018-03-21T21:54:42.062Z,13.07
2018-03-21T21:57:09.754Z,15.05
2018-03-21T21:59:38.255Z,13.45
2018-03-21T22:02:06.786Z,13.77
2018-03-21T22:04:34.447Z,12.88
2018-03-21T22:07:02.107Z,15.27
2018-03-21T22:09:30.069Z,13.40
2018-03-21T22:11:57.630Z,13.77
2018-03-21T22:14:25.263Z,14.07
2018-03-21T22:16:52.939Z,14.10
2018-03-21T22:19:20.711Z,14.30
2018-03-21T22:21:49.151Z,14.18
2018-03-21T22:24:17.052Z,13.98
2018-03-21T22:26:44.690Z,13.25
2018-03-21T22:29:12.332Z,14.30
2018-03-21T22:31:40.035Z,13.30
2018-03-21T22:34:08.686Z,13.88
2018-03-21T22:36:38.018Z,14.25
2018-03-21T22:39:06.823Z,14.35
2018-03-21T22:41:34.415Z,14.50
2018-03-21T22:44:02.017Z,17.10
2018-03-21T22:46:29.626Z,14.85
2018-03-21T22:48:57.166Z,13.68
2018-03-21T22:51:25.504Z,14.68
2018-03-21T22:53:53.120Z,13.62
2018-03-21T22:56:20.766Z,15.10
2018-03-21T22:58:48.384Z,14.35
2018-03-21T23:01:16.007Z,15.93
2018-03-21T23:03:43.568Z,15.55
2018-03-21T23:06:11.182Z,14.85
2018-03-21T23:08:39.588Z,14.65
2018-03-21T23:11:07.643Z,13.50
2018-03-21T23:13:38.194Z,16.27
2018-03-21T23:16:06.270Z,15.30
2018-03-21T23:18:34.643Z,15.00
2018-03-21T23:21:02.294Z,14.77
2018-03-21T23:23:29.966Z,17.08
2018-03-21T23:25:58.299Z,15.40
2018-03-21T23:28:25.911Z,15.85
2018-03-21T23:30:53.887Z,14.18
2018-03-21T23:33:22.275Z,15.70
2018-03-21T23:35:49.828Z,15.85
2018-03-21T23:38:17.419Z,15.70
2018-03-21T23:40:45.769Z,15.38
2018-03-21T23:43:14.087Z,16.80
2018-03-21T23:45:41.675Z,15.38
2018-03-21T23:48:10.001Z,16.40
2018-03-21T23:50:38.311Z,15.90
2018-03-21T23:53:06.272Z,15.52
2018-03-21T23:55:33.839Z,17.20
2018-03-21T23:58:01.395Z,15.88
